PWSweather.com
Personal Weather Stations
Station Observations
IONTARIO88
Lincoln, ON L0R

Lincoln, ON L0R

Lat: 43.1763563, Lon: -79.4719525

Elevation: 297

Station Type: Davis Vantage Pro 2 Plus

http://www.beamsvillewx.ca

High Low Average
Temperature 53.4°F11.9°C 36.3°F2.4°C 43.2°F6.2°C
Dew Point 51.4°F10.8°C 31.2°F-0.4°C 37.3°F2.9°C
Winds 14.0 mph 22.5 kmh Calm Calm 7.0 mph S11.3 kmh S
Wind Gusts 33.0 mph53.1 kmh -- 16.0 mph25.7 kmh
Humidity 94% 65% 80%
Pressure 30.03 in1016.9 mb 29.56 in1001.0 mb -
Precipitation 0.21 in5.3 mm - -
Hour Temp Dew Point Humidity Winds Wind Gusts Pressure Precip Precip Rate Daily Precip Total
12:00 AM 36.0°F2.2°C 31.6°F-0.2°C 84% 1.0 mph NE1.6 kmh NE 2.0 mph3.2 kmh 30.04 in1017.3 mb 0.00 in0.0 mm 0.00 in0.0 mm 0.00 in0.0 mm
12:15 AM 36.0°F2.2°C 31.6°F-0.2°C 84% Calm Calm 4.0 mph6.4 kmh 30.03 in1016.9 mb 0.00 in0.0 mm 0.00 in0.0 mm 0.00 in0.0 mm
12:30 AM 36.3°F2.4°C 31.9°F-0.1°C 84% Calm Calm 2.0 mph3.2 kmh 30.04 in1017.3 mb 0.00 in0.0 mm 0.00 in0.0 mm 0.00 in0.0 mm
12:45 AM 36.7°F2.6°C 32.3°F0.2°C 84% Calm Calm 3.0 mph4.8 kmh 30.04 in1017.3 mb 0.00 in0.0 mm 0.00 in0.0 mm 0.00 in0.0 mm
01:00 AM 37.0°F2.8°C 32.4°F0.2°C 83% 1.0 mph NE1.6 kmh NE 5.0 mph8.0 kmh 30.03 in1016.9 mb 0.00 in0.0 mm 0.00 in0.0 mm 0.00 in0.0 mm
01:15 AM 37.0°F2.8°C 32.9°F0.5°C 85% 1.0 mph NE1.6 kmh NE 5.0 mph8.0 kmh 30.01 in1016.3 mb 0.00 in0.0 mm 0.00 in0.0 mm 0.00 in0.0 mm
01:30 AM 36.9°F2.7°C 33.4°F0.8°C 87% 3.0 mph NE4.8 kmh NE 7.0 mph11.3 kmh 29.99 in1015.6 mb 0.00 in0.0 mm 0.00 in0.0 mm 0.00 in0.0 mm
01:45 AM 36.5°F2.5°C 33.6°F0.9°C 89% 2.0 mph NE3.2 kmh NE 7.0 mph11.3 kmh 29.97 in1014.9 mb 0.01 in0.3 mm 0.04 in1.0 mm 0.01 in0.3 mm
02:00 AM 36.3°F2.4°C 33.7°F0.9°C 90% 2.0 mph ENE3.2 kmh ENE 7.0 mph11.3 kmh 29.95 in1014.2 mb 0.02 in0.5 mm 0.01 in0.3 mm 0.02 in0.5 mm
02:15 AM 36.3°F2.4°C 33.9°F1.1°C 91% 2.0 mph ENE3.2 kmh ENE 7.0 mph11.3 kmh 29.93 in1013.5 mb 0.02 in0.5 mm 0.00 in0.0 mm 0.02 in0.5 mm
02:30 AM 36.7°F2.6°C 34.3°F1.3°C 91% 2.0 mph ENE3.2 kmh ENE 5.0 mph8.0 kmh 29.92 in1013.2 mb 0.02 in0.5 mm 0.00 in0.0 mm 0.02 in0.5 mm
02:45 AM 36.7°F2.6°C 34.6°F1.4°C 92% 2.0 mph ENE3.2 kmh ENE 4.0 mph6.4 kmh 29.90 in1012.5 mb 0.02 in0.5 mm 0.00 in0.0 mm 0.03 in0.8 mm
03:00 AM 37.0°F2.8°C 34.9°F1.6°C 92% 1.0 mph ENE1.6 kmh ENE 8.0 mph12.9 kmh 29.88 in1011.9 mb 0.02 in0.5 mm 0.00 in0.0 mm 0.03 in0.8 mm
03:15 AM 37.2°F2.9°C 35.1°F1.7°C 92% 2.0 mph E3.2 kmh E 7.0 mph11.3 kmh 29.87 in1011.5 mb 0.02 in0.5 mm 0.00 in0.0 mm 0.04 in1.0 mm
03:30 AM 37.2°F2.9°C 35.1°F1.7°C 92% 3.0 mph E4.8 kmh E 8.0 mph12.9 kmh 29.84 in1010.5 mb 0.01 in0.3 mm 0.00 in0.0 mm 0.04 in1.0 mm
03:45 AM 37.2°F2.9°C 35.1°F1.7°C 92% 3.0 mph E4.8 kmh E 7.0 mph11.3 kmh 29.81 in1009.5 mb 0.02 in0.5 mm 0.04 in1.0 mm 0.06 in1.5 mm
04:00 AM 37.2°F2.9°C 35.4°F1.9°C 93% 3.0 mph ESE4.8 kmh ESE 10.0 mph16.1 kmh 29.79 in1008.8 mb 0.04 in1.0 mm 0.03 in0.8 mm 0.07 in1.8 mm
04:15 AM 37.4°F3.0°C 35.6°F2.0°C 93% 4.0 mph ESE6.4 kmh ESE 10.0 mph16.1 kmh 29.76 in1007.8 mb 0.06 in1.5 mm 0.08 in2.0 mm 0.09 in2.3 mm
04:30 AM 37.4°F3.0°C 35.6°F2.0°C 93% 4.0 mph ESE6.4 kmh ESE 11.0 mph17.7 kmh 29.72 in1006.4 mb 0.06 in1.5 mm 0.00 in0.0 mm 0.10 in2.5 mm
04:45 AM 37.6°F3.1°C 35.7°F2.1°C 93% 4.0 mph E6.4 kmh E 10.0 mph16.1 kmh 29.67 in1004.7 mb 0.05 in1.3 mm 0.00 in0.0 mm 0.10 in2.5 mm
05:00 AM 37.9°F3.3°C 36.1°F2.3°C 93% 5.0 mph ESE8.0 kmh ESE 12.0 mph19.3 kmh 29.65 in1004.1 mb 0.03 in0.8 mm 0.00 in0.0 mm 0.11 in2.8 mm
05:15 AM 38.3°F3.5°C 36.5°F2.5°C 93% 2.0 mph E3.2 kmh E 7.0 mph11.3 kmh 29.65 in1004.1 mb 0.02 in0.5 mm 0.00 in0.0 mm 0.11 in2.8 mm
05:30 AM 38.3°F3.5°C 36.5°F2.5°C 93% 3.0 mph N4.8 kmh N 7.0 mph11.3 kmh 29.66 in1004.4 mb 0.01 in0.3 mm 0.00 in0.0 mm 0.11 in2.8 mm
05:45 AM 38.1°F3.4°C 36.3°F2.4°C 93% 2.0 mph N3.2 kmh N 6.0 mph9.7 kmh 29.67 in1004.7 mb 0.01 in0.3 mm 0.00 in0.0 mm 0.11 in2.8 mm
06:00 AM 37.9°F3.3°C 36.1°F2.3°C 93% 2.0 mph N3.2 kmh N 7.0 mph11.3 kmh 29.66 in1004.4 mb 0.00 in0.0 mm 0.00 in0.0 mm 0.11 in2.8 mm
06:15 AM 37.8°F3.2°C 35.9°F2.2°C 93% Calm Calm 1.0 mph1.6 kmh 29.64 in1003.7 mb 0.00 in0.0 mm 0.00 in0.0 mm 0.11 in2.8 mm
06:30 AM 37.8°F3.2°C 35.9°F2.2°C 93% Calm Calm 2.0 mph3.2 kmh 29.62 in1003.0 mb 0.00 in0.0 mm 0.00 in0.0 mm 0.11 in2.8 mm
06:45 AM 37.9°F3.3°C 36.1°F2.3°C 93% Calm Calm -- 29.62 in1003.0 mb 0.02 in0.5 mm 0.08 in2.0 mm 0.13 in3.3 mm
07:00 AM 38.3°F3.5°C 36.5°F2.5°C 93% Calm Calm -- 29.62 in1003.0 mb 0.04 in1.0 mm 0.03 in0.8 mm 0.15 in3.8 mm
07:15 AM 38.5°F3.6°C 36.6°F2.6°C 93% Calm Calm -- 29.61 in1002.7 mb 0.05 in1.3 mm 0.04 in1.0 mm 0.16 in4.1 mm
07:30 AM 38.5°F3.6°C 36.6°F2.6°C 93% Calm Calm -- 29.59 in1002.0 mb 0.05 in1.3 mm 0.00 in0.0 mm 0.16 in4.1 mm
07:45 AM 38.8°F3.8°C 37.0°F2.8°C 93% Calm Calm -- 29.59 in1002.0 mb 0.03 in0.8 mm 0.00 in0.0 mm 0.16 in4.1 mm
08:00 AM 39.2°F4.0°C 37.3°F2.9°C 93% Calm Calm -- 29.58 in1001.7 mb 0.01 in0.3 mm 0.00 in0.0 mm 0.16 in4.1 mm
08:15 AM 39.2°F4.0°C 37.3°F2.9°C 93% Calm Calm 2.0 mph3.2 kmh 29.56 in1001.0 mb 0.00 in0.0 mm 0.00 in0.0 mm 0.16 in4.1 mm
08:30 AM 39.2°F4.0°C 37.3°F2.9°C 93% Calm Calm 2.0 mph3.2 kmh 29.56 in1001.0 mb 0.00 in0.0 mm 0.00 in0.0 mm 0.16 in4.1 mm
08:45 AM 39.4°F4.1°C 37.8°F3.2°C 94% Calm Calm 1.0 mph1.6 kmh 29.56 in1001.0 mb 0.01 in0.3 mm 0.04 in1.0 mm 0.17 in4.3 mm
09:00 AM 44.8°F7.1°C 43.2°F6.2°C 94% 3.0 mph S4.8 kmh S 13.0 mph20.9 kmh 29.56 in1001.0 mb 0.02 in0.5 mm 0.01 in0.3 mm 0.18 in4.6 mm
09:15 AM 49.1°F9.5°C 47.4°F8.6°C 94% 6.0 mph SSW9.7 kmh SSW 13.0 mph20.9 kmh 29.56 in1001.0 mb 0.05 in1.3 mm 0.12 in3.0 mm 0.20 in5.1 mm
09:30 AM 51.8°F11.0°C 50.1°F10.1°C 94% 11.0 mph SW17.7 kmh SW 25.0 mph40.2 kmh 29.56 in1001.0 mb 0.06 in1.5 mm 0.04 in1.0 mm 0.21 in5.3 mm
09:45 AM 53.1°F11.7°C 51.4°F10.8°C 94% 13.0 mph SW20.9 kmh SW 26.0 mph41.8 kmh 29.56 in1001.0 mb 0.05 in1.3 mm 0.00 in0.0 mm 0.21 in5.3 mm
10:00 AM 53.4°F11.9°C 50.9°F10.5°C 91% 13.0 mph SW20.9 kmh SW 26.0 mph41.8 kmh 29.56 in1001.0 mb 0.02 in0.5 mm 0.00 in0.0 mm 0.21 in5.3 mm
10:15 AM 53.4°F11.9°C 50.6°F10.3°C 90% 11.0 mph SW17.7 kmh SW 22.0 mph35.4 kmh 29.58 in1001.7 mb 0.01 in0.3 mm 0.00 in0.0 mm 0.21 in5.3 mm
10:30 AM 53.2°F11.8°C 50.1°F10.1°C 89% 10.0 mph SW16.1 kmh SW 19.0 mph30.6 kmh 29.59 in1002.0 mb 0.00 in0.0 mm 0.00 in0.0 mm 0.21 in5.3 mm
10:45 AM 52.9°F11.6°C 49.4°F9.7°C 88% 8.0 mph WSW12.9 kmh WSW 19.0 mph30.6 kmh 29.60 in1002.4 mb 0.00 in0.0 mm 0.00 in0.0 mm 0.21 in5.3 mm
11:00 AM 52.9°F11.6°C 49.1°F9.5°C 87% 9.0 mph WSW14.5 kmh WSW 20.0 mph32.2 kmh 29.61 in1002.7 mb 0.00 in0.0 mm 0.00 in0.0 mm 0.21 in5.3 mm
11:15 AM 53.1°F11.7°C 47.7°F8.7°C 82% 14.0 mph WSW22.5 kmh WSW 26.0 mph41.8 kmh 29.63 in1003.4 mb 0.00 in0.0 mm 0.00 in0.0 mm 0.21 in5.3 mm
11:30 AM 52.3°F11.3°C 46.4°F8.0°C 80% 13.0 mph WSW20.9 kmh WSW 33.0 mph53.1 kmh 29.65 in1004.1 mb 0.00 in0.0 mm 0.00 in0.0 mm 0.21 in5.3 mm
11:45 AM 52.7°F11.5°C 46.4°F8.0°C 79% 12.0 mph WSW19.3 kmh WSW 26.0 mph41.8 kmh 29.67 in1004.7 mb 0.00 in0.0 mm 0.00 in0.0 mm 0.21 in5.3 mm
12:00 PM 52.9°F11.6°C 44.1°F6.7°C 72% 13.0 mph WSW20.9 kmh WSW 30.0 mph48.3 kmh 29.68 in1005.1 mb 0.00 in0.0 mm 0.00 in0.0 mm 0.21 in5.3 mm
12:15 PM 52.3°F11.3°C 43.6°F6.4°C 72% 12.0 mph WSW19.3 kmh WSW 24.0 mph38.6 kmh 29.69 in1005.4 mb 0.00 in0.0 mm 0.00 in0.0 mm 0.21 in5.3 mm
12:30 PM 51.8°F11.0°C 43.1°F6.2°C 72% 13.0 mph SW20.9 kmh SW 27.0 mph43.5 kmh 29.69 in1005.4 mb 0.00 in0.0 mm 0.00 in0.0 mm 0.21 in5.3 mm
12:45 PM 51.1°F10.6°C 42.4°F5.8°C 72% 11.0 mph SW17.7 kmh SW 22.0 mph35.4 kmh 29.70 in1005.8 mb 0.00 in0.0 mm 0.00 in0.0 mm 0.21 in5.3 mm
01:00 PM 50.5°F10.3°C 41.8°F5.4°C 72% 12.0 mph WSW19.3 kmh WSW 21.0 mph33.8 kmh 29.71 in1006.1 mb 0.00 in0.0 mm 0.00 in0.0 mm 0.21 in5.3 mm
01:15 PM 51.3°F10.7°C 41.8°F5.4°C 70% 11.0 mph WSW17.7 kmh WSW 27.0 mph43.5 kmh 29.71 in1006.1 mb 0.00 in0.0 mm 0.00 in0.0 mm 0.21 in5.3 mm
01:30 PM 50.9°F10.5°C 41.5°F5.3°C 70% 11.0 mph WSW17.7 kmh WSW 22.0 mph35.4 kmh 29.71 in1006.1 mb 0.00 in0.0 mm 0.00 in0.0 mm 0.21 in5.3 mm
01:45 PM 50.5°F10.3°C 40.0°F4.4°C 67% 11.0 mph SW17.7 kmh SW 29.0 mph46.7 kmh 29.71 in1006.1 mb 0.00 in0.0 mm 0.00 in0.0 mm 0.21 in5.3 mm
02:00 PM 49.5°F9.7°C 39.7°F4.3°C 69% 13.0 mph WSW20.9 kmh WSW 27.0 mph43.5 kmh 29.73 in1006.8 mb 0.00 in0.0 mm 0.00 in0.0 mm 0.21 in5.3 mm
02:15 PM 49.5°F9.7°C 39.3°F4.1°C 68% 13.0 mph SW20.9 kmh SW 33.0 mph53.1 kmh 29.73 in1006.8 mb 0.00 in0.0 mm 0.00 in0.0 mm 0.21 in5.3 mm
02:30 PM 49.6°F9.8°C 39.1°F3.9°C 67% 13.0 mph SW20.9 kmh SW 26.0 mph41.8 kmh 29.73 in1006.8 mb 0.00 in0.0 mm 0.00 in0.0 mm 0.21 in5.3 mm
02:45 PM 49.3°F9.6°C 39.2°F4.0°C 68% 13.0 mph SW20.9 kmh SW 30.0 mph48.3 kmh 29.75 in1007.5 mb 0.00 in0.0 mm 0.00 in0.0 mm 0.21 in5.3 mm
03:00 PM 49.6°F9.8°C 38.3°F3.5°C 65% 12.0 mph SW19.3 kmh SW 25.0 mph40.2 kmh 29.75 in1007.5 mb 0.00 in0.0 mm 0.00 in0.0 mm 0.21 in5.3 mm
03:15 PM 48.7°F9.3°C 38.3°F3.5°C 67% 11.0 mph SW17.7 kmh SW 24.0 mph38.6 kmh 29.76 in1007.8 mb 0.00 in0.0 mm 0.00 in0.0 mm 0.21 in5.3 mm
03:30 PM 48.6°F9.2°C 37.7°F3.2°C 66% 11.0 mph SW17.7 kmh SW 22.0 mph35.4 kmh 29.76 in1007.8 mb 0.00 in0.0 mm 0.00 in0.0 mm 0.21 in5.3 mm
03:45 PM 48.9°F9.4°C 38.1°F3.4°C 66% 9.0 mph WSW14.5 kmh WSW 24.0 mph38.6 kmh 29.77 in1008.1 mb 0.00 in0.0 mm 0.00 in0.0 mm 0.21 in5.3 mm
04:00 PM 48.9°F9.4°C 38.4°F3.6°C 67% 10.0 mph WSW16.1 kmh WSW 25.0 mph40.2 kmh 29.77 in1008.1 mb 0.00 in0.0 mm 0.00 in0.0 mm 0.21 in5.3 mm
04:15 PM 48.4°F9.1°C 37.5°F3.1°C 66% 14.0 mph WSW22.5 kmh WSW 28.0 mph45.1 kmh 29.78 in1008.5 mb 0.00 in0.0 mm 0.00 in0.0 mm 0.21 in5.3 mm
04:30 PM 47.8°F8.8°C 37.4°F3.0°C 67% 11.0 mph WSW17.7 kmh WSW 21.0 mph33.8 kmh 29.78 in1008.5 mb 0.00 in0.0 mm 0.00 in0.0 mm 0.21 in5.3 mm
04:45 PM 47.5°F8.6°C 36.7°F2.6°C 66% 12.0 mph SW19.3 kmh SW 26.0 mph41.8 kmh 29.79 in1008.8 mb 0.00 in0.0 mm 0.00 in0.0 mm 0.21 in5.3 mm
05:00 PM 47.5°F8.6°C 37.4°F3.0°C 68% 11.0 mph SW17.7 kmh SW 28.0 mph45.1 kmh 29.80 in1009.1 mb 0.00 in0.0 mm 0.00 in0.0 mm 0.21 in5.3 mm
05:15 PM 47.3°F8.5°C 36.9°F2.7°C 67% 11.0 mph WSW17.7 kmh WSW 24.0 mph38.6 kmh 29.81 in1009.5 mb 0.00 in0.0 mm 0.00 in0.0 mm 0.21 in5.3 mm
05:30 PM 47.1°F8.4°C 36.3°F2.4°C 66% 13.0 mph WSW20.9 kmh WSW 26.0 mph41.8 kmh 29.81 in1009.5 mb 0.00 in0.0 mm 0.00 in0.0 mm 0.21 in5.3 mm
05:45 PM 46.9°F8.3°C 36.2°F2.3°C 66% 9.0 mph SW14.5 kmh SW 20.0 mph32.2 kmh 29.82 in1009.8 mb 0.00 in0.0 mm 0.00 in0.0 mm 0.21 in5.3 mm
06:00 PM 46.2°F7.9°C 35.9°F2.2°C 67% 10.0 mph SW16.1 kmh SW 24.0 mph38.6 kmh 29.82 in1009.8 mb 0.00 in0.0 mm 0.00 in0.0 mm 0.21 in5.3 mm
06:15 PM 45.3°F7.4°C 35.0°F1.7°C 67% 11.0 mph SW17.7 kmh SW 24.0 mph38.6 kmh 29.83 in1010.2 mb 0.00 in0.0 mm 0.00 in0.0 mm 0.21 in5.3 mm
06:30 PM 45.0°F7.2°C 35.4°F1.9°C 69% 8.0 mph SW12.9 kmh SW 16.0 mph25.7 kmh 29.84 in1010.5 mb 0.00 in0.0 mm 0.00 in0.0 mm 0.21 in5.3 mm
06:45 PM 43.9°F6.6°C 35.4°F1.9°C 72% 7.0 mph SW11.3 kmh SW 14.0 mph22.5 kmh 29.85 in1010.8 mb 0.00 in0.0 mm 0.00 in0.0 mm 0.21 in5.3 mm
07:00 PM 42.6°F5.9°C 34.9°F1.6°C 74% 6.0 mph SW9.7 kmh SW 18.0 mph29.0 kmh 29.87 in1011.5 mb 0.00 in0.0 mm 0.00 in0.0 mm 0.21 in5.3 mm
07:15 PM 41.4°F5.2°C 34.0°F1.1°C 75% 7.0 mph SW11.3 kmh SW 13.0 mph20.9 kmh 29.87 in1011.5 mb 0.00 in0.0 mm 0.00 in0.0 mm 0.21 in5.3 mm
07:30 PM 40.6°F4.8°C 33.7°F0.9°C 76% 8.0 mph SW12.9 kmh SW 17.0 mph27.4 kmh 29.88 in1011.9 mb 0.00 in0.0 mm 0.00 in0.0 mm 0.21 in5.3 mm
07:45 PM 40.3°F4.6°C 33.3°F0.7°C 76% 8.0 mph SW12.9 kmh SW 18.0 mph29.0 kmh 29.90 in1012.5 mb 0.00 in0.0 mm 0.00 in0.0 mm 0.21 in5.3 mm
08:00 PM 39.7°F4.3°C 32.8°F0.4°C 76% 9.0 mph SW14.5 kmh SW 21.0 mph33.8 kmh 29.91 in1012.9 mb 0.00 in0.0 mm 0.00 in0.0 mm 0.21 in5.3 mm
08:15 PM 39.6°F4.2°C 32.6°F0.3°C 76% 9.0 mph SW14.5 kmh SW 19.0 mph30.6 kmh 29.92 in1013.2 mb 0.00 in0.0 mm 0.00 in0.0 mm 0.21 in5.3 mm
08:30 PM 39.4°F4.1°C 32.4°F0.2°C 76% 8.0 mph SW12.9 kmh SW 21.0 mph33.8 kmh 29.92 in1013.2 mb 0.00 in0.0 mm 0.00 in0.0 mm 0.21 in5.3 mm
08:45 PM 39.6°F4.2°C 32.3°F0.2°C 75% 8.0 mph SW12.9 kmh SW 18.0 mph29.0 kmh 29.92 in1013.2 mb 0.00 in0.0 mm 0.00 in0.0 mm 0.21 in5.3 mm
09:00 PM 39.6°F4.2°C 32.3°F0.2°C 75% 8.0 mph SW12.9 kmh SW 20.0 mph32.2 kmh 29.93 in1013.5 mb 0.00 in0.0 mm 0.00 in0.0 mm 0.21 in5.3 mm
09:15 PM 39.6°F4.2°C 32.0°F0.0°C 74% 8.0 mph SW12.9 kmh SW 18.0 mph29.0 kmh 29.93 in1013.5 mb 0.00 in0.0 mm 0.00 in0.0 mm 0.21 in5.3 mm
09:30 PM 39.4°F4.1°C 31.8°F-0.1°C 74% 7.0 mph SW11.3 kmh SW 16.0 mph25.7 kmh 29.94 in1013.9 mb 0.00 in0.0 mm 0.00 in0.0 mm 0.21 in5.3 mm
09:45 PM 39.4°F4.1°C 32.1°F0.1°C 75% 8.0 mph SW12.9 kmh SW 16.0 mph25.7 kmh 29.95 in1014.2 mb 0.00 in0.0 mm 0.00 in0.0 mm 0.21 in5.3 mm
10:00 PM 39.4°F4.1°C 32.1°F0.1°C 75% 8.0 mph SW12.9 kmh SW 17.0 mph27.4 kmh 29.95 in1014.2 mb 0.00 in0.0 mm 0.00 in0.0 mm 0.21 in5.3 mm
10:15 PM 39.2°F4.0°C 31.9°F-0.1°C 75% 9.0 mph SW14.5 kmh SW 18.0 mph29.0 kmh 29.96 in1014.6 mb 0.00 in0.0 mm 0.00 in0.0 mm 0.21 in5.3 mm
10:30 PM 39.2°F4.0°C 31.6°F-0.2°C 74% 8.0 mph SW12.9 kmh SW 17.0 mph27.4 kmh 29.96 in1014.6 mb 0.00 in0.0 mm 0.00 in0.0 mm 0.21 in5.3 mm
10:45 PM 39.2°F4.0°C 31.6°F-0.2°C 74% 8.0 mph SW12.9 kmh SW 15.0 mph24.1 kmh 29.97 in1014.9 mb 0.00 in0.0 mm 0.00 in0.0 mm 0.21 in5.3 mm
11:00 PM 39.0°F3.9°C 31.4°F-0.3°C 74% 8.0 mph SW12.9 kmh SW 16.0 mph25.7 kmh 29.98 in1015.2 mb 0.00 in0.0 mm 0.00 in0.0 mm 0.21 in5.3 mm
11:15 PM 39.0°F3.9°C 31.8°F-0.1°C 75% 7.0 mph SW11.3 kmh SW 15.0 mph24.1 kmh 29.99 in1015.6 mb 0.00 in0.0 mm 0.00 in0.0 mm 0.21 in5.3 mm
11:30 PM 39.0°F3.9°C 31.8°F-0.1°C 75% 8.0 mph SW12.9 kmh SW 16.0 mph25.7 kmh 29.99 in1015.6 mb 0.00 in0.0 mm 0.00 in0.0 mm 0.21 in5.3 mm
11:45 PM 38.7°F3.7°C 31.7°F-0.2°C 76% 6.0 mph SW9.7 kmh SW 15.0 mph24.1 kmh 30.00 in1015.9 mb 0.00 in0.0 mm 0.00 in0.0 mm 0.21 in5.3 mm